Time,TemperatureF,DewpointF,PressureIn,WindDirection,WindDirectionDegrees,WindSpeedMPH,WindSpeedGustMPH,Humidity,HourlyPrecipIn,Conditions,Clouds,dailyrainin,SoftwareType,DateUTC
2013-10-21 00:05:00,65.3,16.4,29.73,NW,323,3.0,4.0,15,0.00,,,0.00,Wunderground v.1.15,2013-10-21 07:05:00,
2013-10-21 00:10:00,66.0,17.0,29.73,NNW,342,4.0,4.0,15,0.00,,,0.00,Wunderground v.1.15,2013-10-21 07:10:00,
2013-10-21 00:15:00,66.7,15.9,29.73,NNW,346,4.0,4.0,14,0.00,,,0.00,Wunderground v.1.15,2013-10-21 07:15:00,
2013-10-21 00:25:00,66.6,15.9,29.73,NNW,335,5.0,5.0,14,0.00,,,0.00,Wunderground v.1.15,2013-10-21 07:25:00,
2013-10-21 00:30:00,67.1,16.3,29.73,NNW,328,5.0,5.0,14,0.00,,,0.00,Wunderground v.1.15,2013-10-21 07:30:00,
2013-10-21 00:40:00,67.5,16.6,29.74,NW,326,3.0,4.0,14,0.00,,,0.00,Wunderground v.1.15,2013-10-21 07:40:00,
2013-10-21 00:45:00,67.2,16.3,29.74,NNW,328,4.0,5.0,14,0.00,,,0.00,Wunderground v.1.15,2013-10-21 07:45:00,
2013-10-21 00:50:00,66.8,16.0,29.74,NW,326,4.0,4.0,14,0.00,,,0.00,Wunderground v.1.15,2013-10-21 07:50:00,
2013-10-21 00:55:00,66.8,16.0,29.73,NNW,332,4.0,4.0,14,0.00,,,0.00,Wunderground v.1.15,2013-10-21 07:55:00,
2013-10-21 01:00:00,67.1,16.3,29.74,NNW,332,4.0,4.0,14,0.00,,,0.00,Wunderground v.1.15,2013-10-21 08:00:00,
2013-10-21 01:05:00,67.1,16.3,29.74,NNW,329,4.0,5.0,14,0.00,,,0.00,Wunderground v.1.15,2013-10-21 08:05:00,
2013-10-21 01:10:00,66.9,16.1,29.74,NW,308,5.0,6.0,14,0.00,,,0.00,Wunderground v.1.15,2013-10-21 08:10:00,
2013-10-21 01:15:00,66.8,16.0,29.74,NW,323,6.0,6.0,14,0.00,,,0.00,Wunderground v.1.15,2013-10-21 08:15:00,
2013-10-21 01:20:00,66.6,15.9,29.74,NNW,332,6.0,6.0,14,0.00,,,0.00,Wunderground v.1.15,2013-10-21 08:20:00,
2013-10-21 01:25:00,66.2,15.5,29.74,NNW,336,5.0,7.0,14,0.00,,,0.00,Wunderground v.1.15,2013-10-21 08:25:00,
2013-10-21 01:35:00,65.9,15.3,29.74,NNW,332,6.0,6.0,14,0.00,,,0.00,Wunderground v.1.15,2013-10-21 08:35:00,
2013-10-21 01:45:00,65.8,15.2,29.74,NW,326,3.0,4.0,14,0.00,,,0.00,Wunderground v.1.15,2013-10-21 08:45:00,
2013-10-21 01:50:00,66.1,15.5,29.75,NNW,328,4.0,4.0,14,0.00,,,0.00,Wunderground v.1.15,2013-10-21 08:50:00,
2013-10-21 01:55:00,66.4,15.7,29.74,NNW,328,4.0,4.0,14,0.00,,,0.00,Wunderground v.1.15,2013-10-21 08:55:00,
2013-10-21 02:00:00,66.8,16.0,29.74,NNW,330,4.0,4.0,14,0.00,,,0.00,Wunderground v.1.15,2013-10-21 09:00:00,
2013-10-21 02:10:00,66.4,15.7,29.74,NW,308,4.0,4.0,14,0.00,,,0.00,Wunderground v.1.15,2013-10-21 09:10:00,
2013-10-21 02:15:00,66.5,15.8,29.74,NW,311,3.0,4.0,14,0.00,,,0.00,Wunderground v.1.15,2013-10-21 09:15:00,
2013-10-21 02:20:00,66.7,15.9,29.74,NW,315,2.0,3.0,14,0.00,,,0.00,Wunderground v.1.15,2013-10-21 09:20:00,
2013-10-21 02:25:00,66.6,15.9,29.74,NW,313,2.0,3.0,14,0.00,,,0.00,Wunderground v.1.15,2013-10-21 09:25:00,
2013-10-21 02:30:00,66.6,15.9,29.74,NW,306,1.0,2.0,14,0.00,,,0.00,Wunderground v.1.15,2013-10-21 09:30:00,
2013-10-21 02:35:00,65.9,15.3,29.74,NW,319,1.0,2.0,14,0.00,,,0.00,Wunderground v.1.15,2013-10-21 09:35:00,
2013-10-21 02:40:00,65.9,13.6,29.74,NW,319,0.0,0.0,13,0.00,,,0.00,Wunderground v.1.15,2013-10-21 09:40:00,
2013-10-21 02:45:00,65.9,13.6,29.74,NW,316,0.0,1.0,13,0.00,,,0.00,Wunderground v.1.15,2013-10-21 09:45:00,
2013-10-21 02:50:00,64.8,14.4,29.74,NNW,330,1.0,2.0,14,0.00,,,0.00,Wunderground v.1.15,2013-10-21 09:50:00,
2013-10-21 02:55:00,64.1,13.9,29.74,NNW,330,1.0,2.0,14,0.00,,,0.00,Wunderground v.1.15,2013-10-21 09:55:00,
2013-10-21 03:05:00,64.7,14.3,29.74,NNW,335,1.0,1.0,14,0.00,,,0.00,Wunderground v.1.15,2013-10-21 10:05:00,
2013-10-21 03:10:00,64.9,14.5,29.74,NW,313,1.0,1.0,14,0.00,,,0.00,Wunderground v.1.15,2013-10-21 10:10:00,
2013-10-21 03:15:00,65.2,14.7,29.74,NW,314,1.0,1.0,14,0.00,,,0.00,Wunderground v.1.15,2013-10-21 10:15:00,
2013-10-21 03:20:00,64.9,14.5,29.74,NW,319,1.0,1.0,14,0.00,,,0.00,Wunderground v.1.15,2013-10-21 10:20:00,
2013-10-21 03:25:00,64.6,14.3,29.74,South,184,1.0,1.0,14,0.00,,,0.00,Wunderground v.1.15,2013-10-21 10:25:00,
2013-10-21 03:30:00,64.2,13.9,29.74,South,184,0.0,0.0,14,0.00,,,0.00,Wunderground v.1.15,2013-10-21 10:30:00,
2013-10-21 03:35:00,64.2,13.9,29.74,SW,233,0.0,0.0,14,0.00,,,0.00,Wunderground v.1.15,2013-10-21 10:35:00,
2013-10-21 03:45:00,64.2,13.9,29.74,WSW,245,0.0,0.0,14,0.00,,,0.00,Wunderground v.1.15,2013-10-21 10:45:00,
2013-10-21 03:50:00,64.1,13.9,29.74,West,262,0.0,0.0,14,0.00,,,0.00,Wunderground v.1.15,2013-10-21 10:50:00,
2013-10-21 04:00:00,63.6,13.5,29.74,NNW,335,1.0,2.0,14,0.00,,,0.00,Wunderground v.1.15,2013-10-21 11:00:00,
2013-10-21 04:05:00,63.6,13.5,29.74,NW,323,2.0,2.0,14,0.00,,,0.00,Wunderground v.1.15,2013-10-21 11:05:00,
2013-10-21 04:10:00,63.6,13.5,29.74,NNW,332,2.0,2.0,14,0.00,,,0.00,Wunderground v.1.15,2013-10-21 11:10:00,
2013-10-21 04:15:00,63.5,13.4,29.74,NNW,330,2.0,3.0,14,0.00,,,0.00,Wunderground v.1.15,2013-10-21 11:15:00,
2013-10-21 04:20:00,63.7,13.5,29.74,NNW,329,2.0,2.0,14,0.00,,,0.00,Wunderground v.1.15,2013-10-21 11:20:00,
2013-10-21 04:25:00,63.7,13.5,29.74,NNW,332,2.0,2.0,14,0.00,,,0.00,Wunderground v.1.15,2013-10-21 11:25:00,
2013-10-21 04:30:00,63.9,13.7,29.74,NNW,332,1.0,1.0,14,0.00,,,0.00,Wunderground v.1.15,2013-10-21 11:30:00,
2013-10-21 04:35:00,63.8,13.6,29.74,NNW,332,0.0,1.0,14,0.00,,,0.00,Wunderground v.1.15,2013-10-21 11:35:00,
2013-10-21 04:45:00,63.9,13.7,29.75,NW,313,1.0,1.0,14,0.00,,,0.00,Wunderground v.1.15,2013-10-21 11:45:00,
2013-10-21 04:50:00,63.2,13.1,29.75,NNW,328,1.0,3.0,14,0.00,,,0.00,Wunderground v.1.15,2013-10-21 11:50:00,
2013-10-21 04:55:00,63.2,13.1,29.75,NW,316,2.0,3.0,14,0.00,,,0.00,Wunderground v.1.15,2013-10-21 11:55:00,
2013-10-21 05:00:00,63.2,14.7,29.75,NNW,330,2.0,2.0,15,0.00,,,0.00,Wunderground v.1.15,2013-10-21 12:00:00,
2013-10-21 05:05:00,62.9,14.5,29.75,NNW,330,1.0,2.0,15,0.00,,,0.00,Wunderground v.1.15,2013-10-21 12:05:00,
2013-10-21 05:10:00,63.2,13.1,29.75,NNW,330,1.0,1.0,14,0.00,,,0.00,Wunderground v.1.15,2013-10-21 12:10:00,
2013-10-21 05:15:00,63.3,13.2,29.75,NNW,330,0.0,1.0,14,0.00,,,0.00,Wunderground v.1.15,2013-10-21 12:15:00,
2013-10-21 05:25:00,63.0,14.6,29.75,NNW,329,1.0,1.0,15,0.00,,,0.00,Wunderground v.1.15,2013-10-21 12:25:00,
2013-10-21 05:30:00,63.1,13.1,29.75,NNW,328,1.0,1.0,14,0.00,,,0.00,Wunderground v.1.15,2013-10-21 12:30:00,
2013-10-21 05:40:00,63.3,14.8,29.75,West,269,1.0,1.0,15,0.00,,,0.00,Wunderground v.1.15,2013-10-21 12:40:00,
2013-10-21 05:50:00,63.2,14.7,29.75,WNW,291,2.0,4.0,15,0.00,,,0.00,Wunderground v.1.15,2013-10-21 12:50:00,
2013-10-21 06:00:00,62.7,14.3,29.76,West,260,3.0,3.0,15,0.00,,,0.00,Wunderground v.1.15,2013-10-21 13:00:00,
2013-10-21 06:05:00,62.9,16.0,29.76,West,278,2.0,3.0,16,0.00,,,0.00,Wunderground v.1.15,2013-10-21 13:05:00,
2013-10-21 06:10:00,63.1,16.1,29.76,WNW,282,2.0,2.0,16,0.00,,,0.00,Wunderground v.1.15,2013-10-21 13:10:00,
2013-10-21 06:15:00,62.7,15.8,29.76,West,264,1.0,2.0,16,0.00,,,0.00,Wunderground v.1.15,2013-10-21 13:15:00,
2013-10-21 06:20:00,61.5,14.8,29.76,WSW,248,0.0,0.0,16,0.00,,,0.00,Wunderground v.1.15,2013-10-21 13:20:00,
2013-10-21 06:30:00,60.7,15.6,29.76,WNW,298,2.0,4.0,17,0.00,,,0.00,Wunderground v.1.15,2013-10-21 13:30:00,
2013-10-21 06:35:00,61.0,15.8,29.76,WNW,298,3.0,4.0,17,0.00,,,0.00,Wunderground v.1.15,2013-10-21 13:35:00,
2013-10-21 06:40:00,61.6,16.3,29.76,WNW,290,3.0,5.0,17,0.00,,,0.00,Wunderground v.1.15,2013-10-21 13:40:00,
2013-10-21 06:50:00,62.9,16.0,29.76,West,271,4.0,4.0,16,0.00,,,0.00,Wunderground v.1.15,2013-10-21 13:50:00,
2013-10-21 07:00:00,65.1,16.2,29.77,WNW,298,2.0,3.0,15,0.00,,,0.00,Wunderground v.1.15,2013-10-21 14:00:00,
2013-10-21 07:10:00,65.7,16.7,29.77,NW,318,3.0,3.0,15,0.00,,,0.00,Wunderground v.1.15,2013-10-21 14:10:00,
2013-10-21 07:15:00,65.8,16.8,29.78,WNW,295,3.0,3.0,15,0.00,,,0.00,Wunderground v.1.15,2013-10-21 14:15:00,
2013-10-21 07:20:00,66.4,17.3,29.78,WNW,300,3.0,3.0,15,0.00,,,0.00,Wunderground v.1.15,2013-10-21 14:20:00,
2013-10-21 07:25:00,67.0,17.8,29.78,WNW,293,2.0,3.0,15,0.00,,,0.00,Wunderground v.1.15,2013-10-21 14:25:00,
2013-10-21 07:30:00,67.5,16.6,29.78,South,190,1.0,1.0,14,0.00,,,0.00,Wunderground v.1.15,2013-10-21 14:30:00,
2013-10-21 07:35:00,68.1,15.3,29.78,SW,236,1.0,1.0,13,0.00,,,0.00,Wunderground v.1.15,2013-10-21 14:35:00,
2013-10-21 07:40:00,68.4,17.3,29.79,SW,236,1.0,1.0,14,0.00,,,0.00,Wunderground v.1.15,2013-10-21 14:40:00,
2013-10-21 07:45:00,69.1,16.1,29.79,SW,233,0.0,1.0,13,0.00,,,0.00,Wunderground v.1.15,2013-10-21 14:45:00,
2013-10-21 07:55:00,69.3,18.0,29.79,SSW,208,2.0,2.0,14,0.00,,,0.00,Wunderground v.1.15,2013-10-21 14:55:00,
2013-10-21 08:00:00,69.8,16.7,29.79,SSE,168,1.0,1.0,13,0.00,,,0.00,Wunderground v.1.15,2013-10-21 15:00:00,
2013-10-21 08:05:00,70.3,17.1,29.79,East,96,1.0,4.0,13,0.00,,,0.00,Wunderground v.1.15,2013-10-21 15:05:00,
2013-10-21 08:15:00,70.4,17.2,29.79,SE,144,2.0,2.0,13,0.00,,,0.00,Wunderground v.1.15,2013-10-21 15:15:00,
2013-10-21 08:20:00,70.8,17.5,29.79,SE,130,1.0,3.0,13,0.00,,,0.00,Wunderground v.1.15,2013-10-21 15:20:00,
2013-10-21 08:25:00,70.8,15.6,29.79,South,179,2.0,4.0,12,0.00,,,0.00,Wunderground v.1.15,2013-10-21 15:25:00,
2013-10-21 08:35:00,70.9,15.7,29.80,SSW,201,3.0,4.0,12,0.00,,,0.00,Wunderground v.1.15,2013-10-21 15:35:00,
2013-10-21 08:40:00,70.4,17.2,29.80,SE,141,3.0,3.0,13,0.00,,,0.00,Wunderground v.1.15,2013-10-21 15:40:00,
2013-10-21 08:45:00,71.0,15.8,29.80,SE,146,3.0,3.0,12,0.00,,,0.00,Wunderground v.1.15,2013-10-21 15:45:00,
2013-10-21 08:55:00,71.4,17.9,29.80,South,190,3.0,4.0,13,0.00,,,0.00,Wunderground v.1.15,2013-10-21 15:55:00,
2013-10-21 09:00:00,71.2,17.8,29.80,SSE,166,4.0,4.0,13,0.00,,,0.00,Wunderground v.1.15,2013-10-21 16:00:00,
2013-10-21 09:05:00,71.4,17.9,29.80,SSW,195,3.0,4.0,13,0.00,,,0.00,Wunderground v.1.15,2013-10-21 16:05:00,
2013-10-21 09:15:00,71.3,17.9,29.80,SW,224,4.0,4.0,13,0.00,,,0.00,Wunderground v.1.15,2013-10-21 16:15:00,
2013-10-21 09:25:00,72.0,16.6,29.80,SSW,193,4.0,4.0,12,0.00,,,0.00,Wunderground v.1.15,2013-10-21 16:25:00,
2013-10-21 09:30:00,72.0,16.6,29.80,SSW,205,3.0,5.0,12,0.00,,,0.00,Wunderground v.1.15,2013-10-21 16:30:00,
2013-10-21 09:35:00,72.4,16.9,29.80,SSW,201,3.0,5.0,12,0.00,,,0.00,Wunderground v.1.15,2013-10-21 16:35:00,
2013-10-21 09:45:00,71.9,18.3,29.80,South,184,4.0,7.0,13,0.00,,,0.00,Wunderground v.1.15,2013-10-21 16:45:00,
2013-10-21 09:55:00,72.4,16.9,29.80,South,169,4.0,5.0,12,0.00,,,0.00,Wunderground v.1.15,2013-10-21 16:55:00,
2013-10-21 10:00:00,73.0,19.2,29.80,SE,127,4.0,4.0,13,0.00,,,0.00,Wunderground v.1.15,2013-10-21 17:00:00,
2013-10-21 10:05:00,73.5,17.7,29.80,SSW,198,4.0,5.0,12,0.00,,,0.00,Wunderground v.1.15,2013-10-21 17:05:00,
2013-10-21 10:10:00,73.7,17.9,29.80,SE,137,4.0,4.0,12,0.00,,,0.00,Wunderground v.1.15,2013-10-21 17:10:00,
2013-10-21 10:15:00,74.2,18.3,29.80,SSE,156,4.0,7.0,12,0.00,,,0.00,Wunderground v.1.15,2013-10-21 17:15:00,
2013-10-21 10:25:00,74.8,18.7,29.80,SSE,159,4.0,6.0,12,0.00,,,0.00,Wunderground v.1.15,2013-10-21 17:25:00,
2013-10-21 10:35:00,75.5,19.3,29.80,SSE,165,4.0,4.0,12,0.00,,,0.00,Wunderground v.1.15,2013-10-21 17:35:00,
2013-10-21 10:40:00,75.7,19.4,29.80,South,186,3.0,6.0,12,0.00,,,0.00,Wunderground v.1.15,2013-10-21 17:40:00,
2013-10-21 10:50:00,76.7,18.2,29.80,SW,232,3.0,3.0,11,0.00,,,0.00,Wunderground v.1.15,2013-10-21 17:50:00,
2013-10-21 10:55:00,76.8,18.3,29.80,SSW,198,3.0,3.0,11,0.00,,,0.00,Wunderground v.1.15,2013-10-21 17:55:00,
2013-10-21 11:00:00,77.1,18.5,29.80,SW,226,3.0,4.0,11,0.00,,,0.00,Wunderground v.1.15,2013-10-21 18:00:00,
2013-10-21 11:05:00,77.0,18.4,29.80,SE,141,4.0,4.0,11,0.00,,,0.00,Wunderground v.1.15,2013-10-21 18:05:00,
2013-10-21 11:10:00,76.8,18.3,29.80,South,186,4.0,7.0,11,0.00,,,0.00,Wunderground v.1.15,2013-10-21 18:10:00,
2013-10-21 11:15:00,76.6,18.1,29.80,West,266,5.0,7.0,11,0.00,,,0.00,Wunderground v.1.15,2013-10-21 18:15:00,
2013-10-21 11:20:00,76.5,18.0,29.80,West,260,5.0,5.0,11,0.00,,,0.00,Wunderground v.1.15,2013-10-21 18:20:00,
2013-10-21 11:30:00,77.7,19.0,29.79,South,181,3.0,4.0,11,0.00,,,0.00,Wunderground v.1.15,2013-10-21 18:30:00,
2013-10-21 11:35:00,78.3,17.2,29.79,SW,217,3.0,7.0,10,0.00,,,0.00,Wunderground v.1.15,2013-10-21 18:35:00,
2013-10-21 11:40:00,78.0,17.0,29.79,SE,124,4.0,4.0,10,0.00,,,0.00,Wunderground v.1.15,2013-10-21 18:40:00,
2013-10-21 11:45:00,78.1,17.0,29.79,SSW,193,5.0,5.0,10,0.00,,,0.00,Wunderground v.1.15,2013-10-21 18:45:00,
2013-10-21 11:50:00,78.5,17.4,29.78,South,184,5.0,6.0,10,0.00,,,0.00,Wunderground v.1.15,2013-10-21 18:50:00,
2013-10-21 11:55:00,78.6,17.4,29.79,SSW,201,5.0,6.0,10,0.00,,,0.00,Wunderground v.1.15,2013-10-21 18:55:00,
2013-10-21 12:05:00,79.0,17.7,29.78,ESE,111,4.0,5.0,10,0.00,,,0.00,Wunderground v.1.15,2013-10-21 19:05:00,
2013-10-21 12:10:00,79.0,17.7,29.78,South,174,5.0,5.0,10,0.00,,,0.00,Wunderground v.1.15,2013-10-21 19:10:00,
2013-10-21 12:20:00,80.1,16.1,29.77,SSE,163,5.0,5.0,9,0.00,,,0.00,Wunderground v.1.15,2013-10-21 19:20:00,
2013-10-21 12:25:00,80.0,16.1,29.77,SW,214,6.0,7.0,9,0.00,,,0.00,Wunderground v.1.15,2013-10-21 19:25:00,
2013-10-21 12:30:00,79.7,15.8,29.77,SSW,195,6.0,11.0,9,0.00,,,0.00,Wunderground v.1.15,2013-10-21 19:30:00,
2013-10-21 12:35:00,79.4,15.6,29.77,NW,306,6.0,11.0,9,0.00,,,0.00,Wunderground v.1.15,2013-10-21 19:35:00,
2013-10-21 12:45:00,79.8,15.9,29.76,SSW,208,4.0,5.0,9,0.00,,,0.00,Wunderground v.1.15,2013-10-21 19:45:00,
2013-10-21 12:55:00,78.8,15.1,29.76,SSW,208,7.0,12.0,9,0.00,,,0.00,Wunderground v.1.15,2013-10-21 19:55:00,
2013-10-21 13:00:00,79.3,15.5,29.76,WSW,243,6.0,7.0,9,0.00,,,0.00,Wunderground v.1.15,2013-10-21 20:00:00,
2013-10-21 13:05:00,79.5,15.7,29.75,SW,219,7.0,7.0,9,0.00,,,0.00,Wunderground v.1.15,2013-10-21 20:05:00,
2013-10-21 13:15:00,80.3,16.3,29.75,SW,233,6.0,8.0,9,0.00,,,0.00,Wunderground v.1.15,2013-10-21 20:15:00,
2013-10-21 13:20:00,80.5,13.7,29.75,WSW,245,6.0,8.0,8,0.00,,,0.00,Wunderground v.1.15,2013-10-21 20:20:00,
2013-10-21 13:25:00,80.3,13.6,29.75,SW,233,6.0,8.0,8,0.00,,,0.00,Wunderground v.1.15,2013-10-21 20:25:00,
2013-10-21 13:30:00,79.7,15.8,29.75,WSW,244,7.0,7.0,9,0.00,,,0.00,Wunderground v.1.15,2013-10-21 20:30:00,
2013-10-21 13:35:00,80.1,13.4,29.75,WSW,245,8.0,10.0,8,0.00,,,0.00,Wunderground v.1.15,2013-10-21 20:35:00,
2013-10-21 13:40:00,79.4,12.9,29.75,SW,236,8.0,9.0,8,0.00,,,0.00,Wunderground v.1.15,2013-10-21 20:40:00,
2013-10-21 13:50:00,79.5,15.7,29.74,SW,226,8.0,8.0,9,0.00,,,0.00,Wunderground v.1.15,2013-10-21 20:50:00,
2013-10-21 13:55:00,79.9,13.3,29.74,SSW,211,7.0,11.0,8,0.00,,,0.00,Wunderground v.1.15,2013-10-21 20:55:00,
2013-10-21 14:00:00,80.1,13.4,29.74,WSW,242,7.0,8.0,8,0.00,,,0.00,Wunderground v.1.15,2013-10-21 21:00:00,
2013-10-21 14:05:00,79.8,13.2,29.74,WSW,248,7.0,8.0,8,0.00,,,0.00,Wunderground v.1.15,2013-10-21 21:05:00,
2013-10-21 14:10:00,79.6,13.1,29.74,SW,214,7.0,7.0,8,0.00,,,0.00,Wunderground v.1.15,2013-10-21 21:10:00,
2013-10-21 14:20:00,80.5,13.7,29.74,SW,231,7.0,7.0,8,0.00,,,0.00,Wunderground v.1.15,2013-10-21 21:20:00,
2013-10-21 14:25:00,80.5,13.7,29.74,SSW,193,7.0,11.0,8,0.00,,,0.00,Wunderground v.1.15,2013-10-21 21:25:00,
2013-10-21 14:35:00,80.1,13.4,29.74,WSW,250,7.0,12.0,8,0.00,,,0.00,Wunderground v.1.15,2013-10-21 21:35:00,
2013-10-21 14:40:00,80.7,13.9,29.74,West,269,7.0,7.0,8,0.00,,,0.00,Wunderground v.1.15,2013-10-21 21:40:00,
2013-10-21 14:45:00,80.7,13.9,29.74,SW,224,7.0,7.0,8,0.00,,,0.00,Wunderground v.1.15,2013-10-21 21:45:00,
2013-10-21 14:50:00,80.1,13.4,29.73,WSW,242,8.0,8.0,8,0.00,,,0.00,Wunderground v.1.15,2013-10-21 21:50:00,
2013-10-21 14:55:00,80.0,13.4,29.74,SW,236,8.0,8.0,8,0.00,,,0.00,Wunderground v.1.15,2013-10-21 21:55:00,
2013-10-21 15:05:00,79.9,13.3,29.73,West,268,6.0,7.0,8,0.00,,,0.00,Wunderground v.1.15,2013-10-21 22:05:00,
2013-10-21 15:10:00,79.9,13.3,29.73,SW,231,6.0,6.0,8,0.00,,,0.00,Wunderground v.1.15,2013-10-21 22:10:00,
2013-10-21 15:15:00,80.0,13.4,29.73,West,280,6.0,6.0,8,0.00,,,0.00,Wunderground v.1.15,2013-10-21 22:15:00,
2013-10-21 15:20:00,80.1,13.4,29.73,WSW,252,7.0,7.0,8,0.00,,,0.00,Wunderground v.1.15,2013-10-21 22:20:00,
2013-10-21 15:30:00,80.3,13.6,29.73,SSE,165,6.0,6.0,8,0.00,,,0.00,Wunderground v.1.15,2013-10-21 22:30:00,
2013-10-21 15:40:00,80.1,13.4,29.73,WSW,255,7.0,7.0,8,0.00,,,0.00,Wunderground v.1.15,2013-10-21 22:40:00,
2013-10-21 15:45:00,80.7,13.9,29.73,SW,219,6.0,7.0,8,0.00,,,0.00,Wunderground v.1.15,2013-10-21 22:45:00,
2013-10-21 15:50:00,80.4,13.7,29.73,SW,226,6.0,9.0,8,0.00,,,0.00,Wunderground v.1.15,2013-10-21 22:50:00,
2013-10-21 15:55:00,79.7,13.1,29.73,West,271,8.0,9.0,8,0.00,,,0.00,Wunderground v.1.15,2013-10-21 22:55:00,
2013-10-21 16:05:00,79.7,13.1,29.73,WSW,252,6.0,8.0,8,0.00,,,0.00,Wunderground v.1.15,2013-10-21 23:05:00,
2013-10-21 16:10:00,79.8,13.2,29.73,SW,236,6.0,7.0,8,0.00,,,0.00,Wunderground v.1.15,2013-10-21 23:10:00,
2013-10-21 16:15:00,79.4,12.9,29.73,WSW,250,8.0,12.0,8,0.00,,,0.00,Wunderground v.1.15,2013-10-21 23:15:00,
2013-10-21 16:20:00,79.3,12.8,29.73,West,267,8.0,8.0,8,0.00,,,0.00,Wunderground v.1.15,2013-10-21 23:20:00,
2013-10-21 16:25:00,79.4,12.9,29.73,WSW,245,6.0,8.0,8,0.00,,,0.00,Wunderground v.1.15,2013-10-21 23:25:00,
2013-10-21 16:35:00,79.5,13.0,29.73,West,278,4.0,7.0,8,0.00,,,0.00,Wunderground v.1.15,2013-10-21 23:35:00,
2013-10-21 16:40:00,79.2,12.8,29.73,NW,320,4.0,4.0,8,0.00,,,0.00,Wunderground v.1.15,2013-10-21 23:40:00,
2013-10-21 16:45:00,78.9,15.2,29.73,NNW,332,4.0,4.0,9,0.00,,,0.00,Wunderground v.1.15,2013-10-21 23:45:00,
2013-10-21 16:50:00,78.8,15.1,29.73,WNW,282,3.0,6.0,9,0.00,,,0.00,Wunderground v.1.15,2013-10-21 23:50:00,
2013-10-21 16:55:00,78.5,14.9,29.73,NE,37,3.0,7.0,9,0.00,,,0.00,Wunderground v.1.15,2013-10-21 23:55:00,
2013-10-21 17:00:00,78.2,14.7,29.73,North,3,4.0,5.0,9,0.00,,,0.00,Wunderground v.1.15,2013-10-22 00:00:00,
2013-10-21 17:05:00,77.8,14.4,29.73,NW,321,5.0,5.0,9,0.00,,,0.00,Wunderground v.1.15,2013-10-22 00:05:00,
2013-10-21 17:10:00,77.7,14.3,29.73,West,281,4.0,4.0,9,0.00,,,0.00,Wunderground v.1.15,2013-10-22 00:10:00,
2013-10-21 17:15:00,77.7,14.3,29.73,North,354,2.0,4.0,9,0.00,,,0.00,Wunderground v.1.15,2013-10-22 00:15:00,
2013-10-21 17:20:00,77.2,13.9,29.73,WSW,254,1.0,1.0,9,0.00,,,0.00,Wunderground v.1.15,2013-10-22 00:20:00,
2013-10-21 17:25:00,76.6,13.5,29.74,North,5,1.0,1.0,9,0.00,,,0.00,Wunderground v.1.15,2013-10-22 00:25:00,
2013-10-21 17:35:00,75.9,15.4,29.74,NNE,13,2.0,4.0,10,0.00,,,0.00,Wunderground v.1.15,2013-10-22 00:35:00,
2013-10-21 17:45:00,75.2,14.8,29.74,NE,51,1.0,2.0,10,0.00,,,0.00,Wunderground v.1.15,2013-10-22 00:45:00,
2013-10-21 17:55:00,74.5,14.3,29.74,ESE,116,1.0,1.0,10,0.00,,,0.00,Wunderground v.1.15,2013-10-22 00:55:00,
2013-10-21 18:05:00,74.5,14.3,29.74,West,266,3.0,5.0,10,0.00,,,0.00,Wunderground v.1.15,2013-10-22 01:05:00,
2013-10-21 18:10:00,74.3,14.1,29.74,WSW,254,3.0,3.0,10,0.00,,,0.00,Wunderground v.1.15,2013-10-22 01:10:00,
2013-10-21 18:15:00,74.3,14.1,29.75,West,273,3.0,5.0,10,0.00,,,0.00,Wunderground v.1.15,2013-10-22 01:15:00,
2013-10-21 18:20:00,74.2,14.1,29.75,NNE,20,4.0,4.0,10,0.00,,,0.00,Wunderground v.1.15,2013-10-22 01:20:00,
2013-10-21 18:25:00,74.0,13.9,29.75,NNE,15,4.0,5.0,10,0.00,,,0.00,Wunderground v.1.15,2013-10-22 01:25:00,
2013-10-21 18:30:00,73.9,13.8,29.75,NNW,346,4.0,4.0,10,0.00,,,0.00,Wunderground v.1.15,2013-10-22 01:30:00,
2013-10-21 18:35:00,73.8,15.9,29.75,NW,306,4.0,6.0,11,0.00,,,0.00,Wunderground v.1.15,2013-10-22 01:35:00,
2013-10-21 18:45:00,73.7,15.9,29.75,NNW,332,7.0,9.0,11,0.00,,,0.00,Wunderground v.1.15,2013-10-22 01:45:00,
2013-10-21 18:50:00,73.7,15.9,29.75,NNW,333,8.0,8.0,11,0.00,,,0.00,Wunderground v.1.15,2013-10-22 01:50:00,
2013-10-21 18:55:00,73.7,15.9,29.75,NNW,332,8.0,8.0,11,0.00,,,0.00,Wunderground v.1.15,2013-10-22 01:55:00,
2013-10-21 19:00:00,73.5,15.7,29.76,NNW,332,7.0,8.0,11,0.00,,,0.00,Wunderground v.1.15,2013-10-22 02:00:00,
2013-10-21 19:05:00,73.4,15.6,29.76,NW,312,7.0,8.0,11,0.00,,,0.00,Wunderground v.1.15,2013-10-22 02:05:00,
2013-10-21 19:10:00,73.1,15.4,29.76,North,1,5.0,5.0,11,0.00,,,0.00,Wunderground v.1.15,2013-10-22 02:10:00,
2013-10-21 19:15:00,72.3,14.8,29.76,ENE,64,3.0,5.0,11,0.00,,,0.00,Wunderground v.1.15,2013-10-22 02:15:00,
2013-10-21 19:25:00,71.4,16.1,29.77,ENE,65,1.0,2.0,12,0.00,,,0.00,Wunderground v.1.15,2013-10-22 02:25:00,
2013-10-21 19:30:00,71.2,15.9,29.77,North,359,1.0,1.0,12,0.00,,,0.00,Wunderground v.1.15,2013-10-22 02:30:00,
2013-10-21 19:35:00,71.0,15.8,29.77,NW,323,1.0,1.0,12,0.00,,,0.00,Wunderground v.1.15,2013-10-22 02:35:00,
2013-10-21 19:40:00,71.1,15.9,29.77,NNW,337,1.0,1.0,12,0.00,,,0.00,Wunderground v.1.15,2013-10-22 02:40:00,
2013-10-21 19:45:00,71.0,15.8,29.77,NNW,338,1.0,1.0,12,0.00,,,0.00,Wunderground v.1.15,2013-10-22 02:45:00,
2013-10-21 19:50:00,71.2,15.9,29.77,NNW,332,1.0,2.0,12,0.00,,,0.00,Wunderground v.1.15,2013-10-22 02:50:00,
2013-10-21 20:00:00,71.0,15.8,29.77,NNW,328,3.0,3.0,12,0.00,,,0.00,Wunderground v.1.15,2013-10-22 03:00:00,
2013-10-21 20:10:00,70.8,15.6,29.77,NNW,333,3.0,3.0,12,0.00,,,0.00,Wunderground v.1.15,2013-10-22 03:10:00,
2013-10-21 20:15:00,70.8,15.6,29.77,NW,326,3.0,5.0,12,0.00,,,0.00,Wunderground v.1.15,2013-10-22 03:15:00,
2013-10-21 20:20:00,70.6,15.5,29.77,NW,326,4.0,5.0,12,0.00,,,0.00,Wunderground v.1.15,2013-10-22 03:20:00,
2013-10-21 20:25:00,70.3,15.2,29.78,NNW,335,4.0,5.0,12,0.00,,,0.00,Wunderground v.1.15,2013-10-22 03:25:00,
2013-10-21 20:35:00,69.8,14.8,29.78,NNW,342,2.0,3.0,12,0.00,,,0.00,Wunderground v.1.15,2013-10-22 03:35:00,
2013-10-21 20:40:00,70.4,15.3,29.78,NW,323,2.0,2.0,12,0.00,,,0.00,Wunderground v.1.15,2013-10-22 03:40:00,
2013-10-21 20:45:00,70.7,15.5,29.78,NW,323,3.0,4.0,12,0.00,,,0.00,Wunderground v.1.15,2013-10-22 03:45:00,
2013-10-21 20:50:00,70.8,15.6,29.78,NNW,331,3.0,5.0,12,0.00,,,0.00,Wunderground v.1.15,2013-10-22 03:50:00,
2013-10-21 21:00:00,70.1,15.1,29.78,NNW,335,7.0,9.0,12,0.00,,,0.00,Wunderground v.1.15,2013-10-22 04:00:00,
2013-10-21 21:05:00,70.0,15.0,29.78,NNW,332,8.0,9.0,12,0.00,,,0.00,Wunderground v.1.15,2013-10-22 04:05:00,
2013-10-21 21:10:00,70.0,15.0,29.78,NW,323,8.0,8.0,12,0.00,,,0.00,Wunderground v.1.15,2013-10-22 04:10:00,
2013-10-21 21:15:00,70.3,15.2,29.78,NW,323,7.0,8.0,12,0.00,,,0.00,Wunderground v.1.15,2013-10-22 04:15:00,
2013-10-21 21:20:00,70.3,15.2,29.78,NNW,345,7.0,7.0,12,0.00,,,0.00,Wunderground v.1.15,2013-10-22 04:20:00,
2013-10-21 21:25:00,70.3,15.2,29.79,NNW,327,7.0,8.0,12,0.00,,,0.00,Wunderground v.1.15,2013-10-22 04:25:00,
2013-10-21 21:30:00,70.1,15.1,29.79,North,354,6.0,6.0,12,0.00,,,0.00,Wunderground v.1.15,2013-10-22 04:30:00,
2013-10-21 21:35:00,69.7,14.8,29.79,NNW,329,6.0,6.0,12,0.00,,,0.00,Wunderground v.1.15,2013-10-22 04:35:00,
2013-10-21 21:40:00,69.8,14.8,29.79,NW,311,5.0,5.0,12,0.00,,,0.00,Wunderground v.1.15,2013-10-22 04:40:00,
2013-10-21 21:45:00,70.1,15.1,29.79,NW,321,5.0,5.0,12,0.00,,,0.00,Wunderground v.1.15,2013-10-22 04:45:00,
2013-10-21 21:50:00,70.1,15.1,29.79,East,83,4.0,4.0,12,0.00,,,0.00,Wunderground v.1.15,2013-10-22 04:50:00,
2013-10-21 21:55:00,68.1,15.3,29.79,NW,316,2.0,4.0,13,0.00,,,0.00,Wunderground v.1.15,2013-10-22 04:55:00,
2013-10-21 22:00:00,67.2,14.6,29.79,NW,313,2.0,2.0,13,0.00,,,0.00,Wunderground v.1.15,2013-10-22 05:00:00,
2013-10-21 22:10:00,67.7,15.0,29.79,SE,125,4.0,4.0,13,0.00,,,0.00,Wunderground v.1.15,2013-10-22 05:10:00,
2013-10-21 22:20:00,68.4,15.6,29.79,NNW,336,4.0,4.0,13,0.00,,,0.00,Wunderground v.1.15,2013-10-22 05:20:00,
2013-10-21 22:25:00,68.9,16.0,29.79,NNW,332,6.0,6.0,13,0.00,,,0.00,Wunderground v.1.15,2013-10-22 05:25:00,
2013-10-21 22:30:00,68.9,14.1,29.79,NNW,345,6.0,6.0,12,0.00,,,0.00,Wunderground v.1.15,2013-10-22 05:30:00,
2013-10-21 22:40:00,68.9,14.1,29.79,NNW,340,6.0,7.0,12,0.00,,,0.00,Wunderground v.1.15,2013-10-22 05:40:00,
2013-10-21 22:45:00,69.3,14.4,29.79,NNW,340,7.0,7.0,12,0.00,,,0.00,Wunderground v.1.15,2013-10-22 05:45:00,
2013-10-21 22:55:00,69.8,12.9,29.79,NW,316,7.0,7.0,11,0.00,,,0.00,Wunderground v.1.15,2013-10-22 05:55:00,
2013-10-21 23:00:00,69.7,12.8,29.79,NNW,329,6.0,6.0,11,0.00,,,0.00,Wunderground v.1.15,2013-10-22 06:00:00,
2013-10-21 23:10:00,68.8,14.1,29.80,NW,318,3.0,3.0,12,0.00,,,0.00,Wunderground v.1.15,2013-10-22 06:10:00,
2013-10-21 23:15:00,68.8,14.1,29.79,West,280,2.0,3.0,12,0.00,,,0.00,Wunderground v.1.15,2013-10-22 06:15:00,
2013-10-21 23:25:00,68.1,13.5,29.79,NW,316,2.0,2.0,12,0.00,,,0.00,Wunderground v.1.15,2013-10-22 06:25:00,
2013-10-21 23:30:00,67.8,13.3,29.80,NNW,346,3.0,6.0,12,0.00,,,0.00,Wunderground v.1.15,2013-10-22 06:30:00,
2013-10-21 23:35:00,67.8,13.3,29.80,NNW,335,5.0,6.0,12,0.00,,,0.00,Wunderground v.1.15,2013-10-22 06:35:00,
2013-10-21 23:45:00,68.1,13.5,29.80,NNW,347,3.0,4.0,12,0.00,,,0.00,Wunderground v.1.15,2013-10-22 06:45:00,
2013-10-21 23:50:00,68.3,13.7,29.80,NW,319,2.0,2.0,12,0.00,,,0.00,Wunderground v.1.15,2013-10-22 06:50:00,
2013-10-21 23:55:00,69.0,14.2,29.80,NW,304,2.0,2.0,12,0.00,,,0.00,Wunderground v.1.15,2013-10-22 06:55:00,